Time;durP1;ratioP1;P1;durP2;ratioP2;P2;SDS_P1;SDS_P2;PMS_P1;PMS_P2;Temp;Humidity;BMP_temperature;BMP_pressure;BME280_temperature;BME280_humidity;BME280_pressure;Samples;Min_cycle;Max_cycle;Signal;HPM_P1;HPM_P2
2022/01/24 00:00:55;;;;;;;4.45;2.70;;;3.70;99.90;;;;;;5071955;28;20454;-72
2022/01/24 00:03:42;;;;;;;3.60;2.33;;;3.80;99.90;;;;;;5079548;28;20207;-72
2022/01/24 00:06:28;;;;;;;5.13;2.60;;;3.70;99.90;;;;;;5081508;28;20219;-71
2022/01/24 00:09:13;;;;;;;3.58;2.88;;;3.80;99.90;;;;;;5091562;28;20207;-72
2022/01/24 00:12:05;;;;;;;2.70;2.40;;;3.60;99.90;;;;;;5090994;28;20560;-72
2022/01/24 00:15:04;;;;;;;3.30;2.70;;;3.60;99.90;;;;;;5086309;28;20187;-72
2022/01/24 00:18:02;;;;;;;4.70;3.25;;;3.60;99.90;;;;;;5071203;28;20188;-72
2022/01/24 00:26:56;;;;;;;3.30;2.78;;;3.60;99.90;;;;;;5087135;28;20791;-72
2022/01/24 00:29:42;;;;;;;3.90;3.25;;;3.60;99.90;;;;;;5091179;28;20702;-72
2022/01/24 00:32:27;;;;;;;6.13;3.05;;;3.60;99.90;;;;;;5091397;28;20199;-72
2022/01/24 00:35:13;;;;;;;5.15;3.10;;;3.60;99.90;;;;;;5086874;28;20679;-72
2022/01/24 00:38:02;;;;;;;4.65;3.55;;;3.60;99.90;;;;;;5090469;28;20282;-71
2022/01/24 00:40:49;;;;;;;4.75;3.22;;;3.60;99.90;;;;;;5092802;28;20334;-72
2022/01/24 00:43:50;;;;;;;6.13;3.25;;;3.60;99.90;;;;;;5079100;28;20203;-71
2022/01/24 00:46:42;;;;;;;7.40;3.08;;;3.70;99.90;;;;;;5085334;28;20704;-71
2022/01/24 00:49:47;;;;;;;5.15;3.45;;;3.80;99.90;;;;;;5087292;28;20196;-71
2022/01/24 00:55:49;;;;;;;10.35;3.22;;;3.90;99.90;;;;;;5005053;28;20262;-71
2022/01/24 00:58:35;;;;;;;6.40;3.85;;;3.90;99.90;;;;;;5092764;28;20203;-71
2022/01/24 01:01:21;;;;;;;3.80;3.15;;;3.80;99.90;;;;;;5094671;28;20708;-71
2022/01/24 01:04:06;;;;;;;7.35;3.78;;;3.80;99.90;;;;;;5093711;28;20326;-71
2022/01/24 01:06:53;;;;;;;4.53;3.40;;;3.90;99.90;;;;;;5091642;28;20223;-71
2022/01/24 01:19:01;;;;;;;9.90;4.05;;;3.90;99.90;;;;;;5090017;28;20464;-71
2022/01/24 01:21:47;;;;;;;5.50;3.85;;;3.80;99.90;;;;;;5094594;28;20211;-71
2022/01/24 01:24:38;;;;;;;5.80;3.72;;;3.80;99.90;;;;;;5090925;28;20207;-71
2022/01/24 01:27:27;;;;;;;6.00;3.70;;;3.90;99.90;;;;;;5078736;28;20205;-71
2022/01/24 01:30:18;;;;;;;7.10;4.10;;;3.90;99.90;;;;;;5094933;22;20180;-72
2022/01/24 01:33:11;;;;;;;6.80;4.32;;;3.90;99.90;;;;;;5051224;28;20419;-72
2022/01/24 01:36:06;;;;;;;6.10;3.80;;;4.00;99.90;;;;;;5041835;28;20336;-72
2022/01/24 01:54:29;;;;;;;4.68;3.75;;;4.00;99.90;;;;;;5056001;28;20194;-72
2022/01/24 01:57:17;;;;;;;4.90;4.05;;;4.00;99.90;;;;;;5061223;28;20200;-74
2022/01/24 02:00:03;;;;;;;6.20;4.10;;;4.20;99.90;;;;;;5055154;28;20331;-73
2022/01/24 02:02:49;;;;;;;5.28;4.03;;;4.20;99.90;;;;;;5054794;28;20197;-72
2022/01/24 02:05:36;;;;;;;5.25;3.90;;;4.20;99.90;;;;;;5047549;28;20559;-73
2022/01/24 02:08:23;;;;;;;7.18;3.92;;;4.30;99.90;;;;;;5062282;28;20344;-73
2022/01/24 02:11:10;;;;;;;4.45;3.80;;;4.40;99.90;;;;;;5061061;28;20247;-73
2022/01/24 02:13:59;;;;;;;5.68;4.30;;;4.40;99.90;;;;;;5048176;28;20241;-72
2022/01/24 02:16:49;;;;;;;6.63;4.72;;;4.40;99.90;;;;;;5063730;28;20281;-73
2022/01/24 02:19:49;;;;;;;7.57;4.80;;;4.40;99.90;;;;;;5062005;28;20204;-73
2022/01/24 02:22:47;;;;;;;5.60;4.55;;;4.30;99.90;;;;;;5055608;28;20681;-73
2022/01/24 02:25:33;;;;;;;9.35;4.38;;;4.30;99.90;;;;;;5053818;28;20231;-73
2022/01/24 02:28:21;;;;;;;6.07;4.00;;;4.30;99.90;;;;;;5051540;28;20205;-73
2022/01/24 02:31:21;;;;;;;6.60;4.10;;;4.40;99.90;;;;;;5061254;28;20290;-73
2022/01/24 02:34:30;;;;;;;5.05;4.20;;;4.40;99.90;;;;;;5046925;28;20205;-73
2022/01/24 02:37:19;;;;;;;10.23;3.88;;;4.40;99.90;;;;;;5051803;28;20212;-73
2022/01/24 02:40:12;;;;;;;6.15;5.00;;;4.40;99.90;;;;;;5052814;28;20294;-73
2022/01/24 02:48:23;;;;;;;8.93;6.93;;;4.20;99.90;;;;;;4983118;28;20796;-73
2022/01/24 02:49:13;;;;;;;10.85;6.90;;;4.10;99.90;;;;;;5059746;28;20780;-73
2022/01/24 02:52:04;;;;;;;9.82;6.03;;;4.10;99.90;;;;;;5066943;28;20350;-73
2022/01/24 02:54:49;;;;;;;7.40;5.43;;;4.00;99.90;;;;;;5052333;28;20208;-73
2022/01/24 02:57:36;;;;;;;8.52;5.90;;;4.00;99.90;;;;;;5050749;28;20271;-73
2022/01/24 03:00:22;;;;;;;7.18;5.32;;;4.00;99.90;;;;;;5050900;28;20225;-71
2022/01/24 03:03:08;;;;;;;7.55;5.85;;;4.10;99.90;;;;;;5050340;28;20193;-72
2022/01/24 03:05:53;;;;;;;6.38;5.20;;;4.00;99.90;;;;;;5052115;28;20283;-72
2022/01/24 03:08:40;;;;;;;8.30;5.00;;;4.10;99.90;;;;;;5051217;28;20601;-72
2022/01/24 03:11:31;;;;;;;8.15;5.30;;;4.10;99.90;;;;;;5042694;28;20221;-72
2022/01/24 03:14:20;;;;;;;7.80;3.90;;;4.20;99.90;;;;;;5043051;28;20751;-71
2022/01/24 03:17:07;;;;;;;5.78;4.75;;;4.30;99.90;;;;;;5054494;28;20696;-72
2022/01/24 03:19:53;;;;;;;11.48;5.70;;;4.30;99.90;;;;;;5054503;28;20201;-73
2022/01/24 03:22:38;;;;;;;6.78;5.50;;;4.30;99.90;;;;;;5049478;28;20201;-73
2022/01/24 03:25:24;;;;;;;8.63;5.15;;;4.40;99.90;;;;;;5047139;28;21663;-72
2022/01/24 03:28:11;;;;;;;7.55;5.15;;;4.30;99.90;;;;;;5057582;28;20204;-72
2022/01/24 03:30:58;;;;;;;9.55;5.80;;;4.30;99.90;;;;;;5056290;28;21194;-73
2022/01/24 03:33:44;;;;;;;5.68;4.80;;;4.40;99.90;;;;;;5038293;28;20340;-73
2022/01/24 03:36:30;;;;;;;5.55;4.90;;;4.40;99.90;;;;;;5045077;28;20732;-72
2022/01/24 03:39:16;;;;;;;7.50;5.35;;;4.30;99.90;;;;;;5060684;28;20664;-71
2022/01/24 03:42:01;;;;;;;10.55;5.30;;;4.40;99.90;;;;;;5049657;28;20302;-72
2022/01/24 03:44:51;;;;;;;7.90;5.35;;;4.30;99.90;;;;;;5056571;28;20558;-72
2022/01/24 03:48:00;;;;;;;5.90;4.80;;;4.40;99.90;;;;;;5045998;28;20777;-72
2022/01/24 03:50:45;;;;;;;7.03;4.95;;;4.40;99.90;;;;;;5061287;28;20270;-72
2022/01/24 03:53:31;;;;;;;5.03;4.38;;;4.50;99.90;;;;;;5046404;28;20201;-72
2022/01/24 03:56:17;;;;;;;5.83;4.80;;;4.40;99.90;;;;;;5059251;28;20251;-72
2022/01/24 03:59:03;;;;;;;4.95;4.35;;;4.40;99.90;;;;;;5060884;28;20447;-72
2022/01/24 04:01:48;;;;;;;4.30;3.65;;;4.50;99.90;;;;;;5051342;28;20215;-70
2022/01/24 04:04:36;;;;;;;7.07;4.50;;;4.50;99.90;;;;;;5046378;28;20209;-72
2022/01/24 04:07:22;;;;;;;5.80;4.30;;;4.40;99.90;;;;;;5056528;28;20218;-72
2022/01/24 04:10:08;;;;;;;5.93;4.40;;;4.40;99.90;;;;;;5053296;28;20200;-72
2022/01/24 04:12:53;;;;;;;9.82;4.63;;;4.40;99.90;;;;;;5053382;28;20193;-72
2022/01/24 04:15:46;;;;;;;4.50;3.75;;;4.40;99.90;;;;;;5060133;28;20208;-72
2022/01/24 04:18:38;;;;;;;5.05;3.80;;;4.50;99.90;;;;;;5060763;28;20208;-73
2022/01/24 04:21:28;;;;;;;8.83;4.30;;;4.50;99.90;;;;;;5055481;28;20228;-72
2022/01/24 04:24:19;;;;;;;5.30;4.35;;;4.50;99.90;;;;;;5059313;28;20577;-71
2022/01/24 04:27:05;;;;;;;6.30;3.60;;;4.60;99.90;;;;;;5057911;28;20208;-73
2022/01/24 04:29:51;;;;;;;6.97;3.97;;;4.60;99.90;;;;;;5055347;28;20769;-73
2022/01/24 04:32:36;;;;;;;4.95;4.20;;;4.60;99.90;;;;;;5048741;28;20196;-73
2022/01/24 04:35:22;;;;;;;8.30;3.78;;;4.70;99.90;;;;;;5050597;28;20204;-72
2022/01/24 04:38:09;;;;;;;6.95;4.70;;;4.80;99.90;;;;;;5058211;28;20197;-73
2022/01/24 04:40:58;;;;;;;6.78;4.00;;;4.80;99.90;;;;;;5067220;28;20228;-72
2022/01/24 04:43:54;;;;;;;5.70;4.20;;;4.80;99.90;;;;;;5036123;28;20236;-73
2022/01/24 04:46:56;;;;;;;5.60;4.30;;;4.80;99.90;;;;;;5066811;28;20188;-73
2022/01/24 04:52:53;;;;;;;7.65;5.05;;;4.80;99.90;;;;;;5044284;28;20265;-72
2022/01/24 04:55:40;;;;;;;9.27;4.97;;;4.80;99.90;;;;;;5059573;28;20221;-72
2022/01/24 04:58:25;;;;;;;11.18;4.70;;;4.90;99.90;;;;;;5034679;28;20182;-73
2022/01/24 05:01:13;;;;;;;5.70;4.70;;;4.90;99.90;;;;;;5043983;28;20237;-72
2022/01/24 05:03:58;;;;;;;9.27;4.68;;;4.90;99.90;;;;;;5053211;28;20195;-72
2022/01/24 05:06:44;;;;;;;5.47;4.00;;;4.90;99.90;;;;;;5069705;28;20311;-72
2022/01/24 05:09:35;;;;;;;5.97;4.47;;;4.90;99.90;;;;;;5074609;28;20271;-72
2022/01/24 05:12:31;;;;;;;6.90;4.97;;;4.90;99.90;;;;;;5053569;28;20252;-73
2022/01/24 05:21:39;;;;;;;5.32;4.15;;;5.00;99.90;;;;;;5056985;28;20723;-72
2022/01/24 05:24:23;;;;;;;6.18;4.40;;;5.00;99.90;;;;;;5059482;28;20342;-72
2022/01/24 05:27:09;;;;;;;6.68;4.30;;;5.00;99.90;;;;;;5070151;28;20200;-71
2022/01/24 05:29:56;;;;;;;5.30;4.43;;;5.00;99.90;;;;;;5056816;28;20193;-72
2022/01/24 05:32:42;;;;;;;4.80;4.20;;;4.90;99.90;;;;;;5053871;28;20286;-72
2022/01/24 05:35:28;;;;;;;7.30;4.35;;;5.00;99.90;;;;;;5046564;28;20193;-72
2022/01/24 05:38:13;;;;;;;7.78;4.47;;;4.90;99.90;;;;;;5057664;28;20228;-72
2022/01/24 05:40:59;;;;;;;5.63;4.40;;;5.00;99.90;;;;;;5046302;28;20593;-73
2022/01/24 05:43:45;;;;;;;5.15;4.50;;;4.90;99.90;;;;;;5064291;28;20662;-72
2022/01/24 05:46:32;;;;;;;8.07;4.03;;;5.00;99.90;;;;;;5063564;28;20592;-73
2022/01/24 05:49:17;;;;;;;8.82;4.50;;;5.10;99.90;;;;;;5060775;28;20664;-71
2022/01/24 05:52:09;;;;;;;6.93;5.03;;;5.10;99.90;;;;;;5057564;28;20304;-72
2022/01/24 05:54:54;;;;;;;6.75;3.92;;;5.10;99.90;;;;;;5069016;28;20212;-72
2022/01/24 05:57:40;;;;;;;7.30;4.07;;;5.10;99.90;;;;;;5057967;28;20216;-71
2022/01/24 06:00:26;;;;;;;7.55;4.38;;;5.10;99.90;;;;;;5056865;28;20271;-71
2022/01/24 06:03:13;;;;;;;5.18;3.80;;;5.00;99.90;;;;;;5071415;28;20588;-71
2022/01/24 06:05:59;;;;;;;6.85;5.30;;;5.10;99.90;;;;;;5063457;28;20207;-73
2022/01/24 06:08:45;;;;;;;4.75;3.25;;;5.10;99.90;;;;;;5057204;28;20686;-72
2022/01/24 06:11:30;;;;;;;4.85;3.00;;;5.10;99.90;;;;;;5051355;28;20307;-72
2022/01/24 06:14:16;;;;;;;4.55;3.78;;;5.10;99.90;;;;;;5054408;28;20255;-73
2022/01/24 06:17:01;;;;;;;4.95;3.95;;;5.10;99.90;;;;;;5059179;28;20242;-71
2022/01/24 06:19:48;;;;;;;5.28;3.80;;;5.10;99.90;;;;;;5055818;28;20201;-73
2022/01/24 06:22:36;;;;;;;7.63;3.90;;;5.10;99.90;;;;;;5056439;28;20216;-73
2022/01/24 06:25:24;;;;;;;6.13;3.72;;;5.10;99.90;;;;;;5061020;28;20258;-72
2022/01/24 06:28:10;;;;;;;5.45;4.20;;;5.20;99.90;;;;;;5053205;28;20200;-72
2022/01/24 06:30:55;;;;;;;6.90;4.40;;;5.20;99.90;;;;;;5055022;28;20232;-72
2022/01/24 06:33:41;;;;;;;6.38;3.92;;;5.20;99.90;;;;;;5059099;28;20204;-73
2022/01/24 06:36:28;;;;;;;9.52;4.40;;;5.20;99.90;;;;;;5061062;28;20250;-72
2022/01/24 06:39:15;;;;;;;5.57;4.05;;;5.20;99.90;;;;;;5067116;28;20196;-72
2022/01/24 06:42:12;;;;;;;4.75;3.50;;;5.20;99.90;;;;;;5045145;28;20300;-73
2022/01/24 06:44:58;;;;;;;5.25;4.28;;;5.20;99.90;;;;;;5057455;28;20189;-72
2022/01/24 06:47:44;;;;;;;4.40;3.92;;;5.20;99.90;;;;;;5058782;28;20200;-73
2022/01/24 06:50:30;;;;;;;6.20;3.30;;;5.20;99.90;;;;;;5045794;28;20323;-72
2022/01/24 06:53:17;;;;;;;3.95;2.90;;;5.30;99.90;;;;;;5062098;28;20435;-71
2022/01/24 06:56:03;;;;;;;3.83;3.13;;;5.30;99.90;;;;;;5049898;28;20205;-72
2022/01/24 06:58:49;;;;;;;4.28;3.08;;;5.30;99.90;;;;;;5063126;28;20200;-72
2022/01/24 07:01:34;;;;;;;6.60;3.40;;;5.30;99.90;;;;;;5034362;28;20225;-73
2022/01/24 07:04:20;;;;;;;6.45;4.13;;;5.30;99.90;;;;;;5049698;28;20254;-72
2022/01/24 07:07:07;;;;;;;4.97;4.47;;;5.30;99.90;;;;;;5069873;28;20204;-72
2022/01/24 07:09:54;;;;;;;8.57;5.30;;;5.30;99.90;;;;;;5047837;28;20213;-72
2022/01/24 07:12:39;;;;;;;6.35;5.10;;;5.20;99.90;;;;;;5048723;28;20252;-73
2022/01/24 07:15:31;;;;;;;5.97;4.93;;;5.30;99.90;;;;;;5050115;28;20341;-73
2022/01/24 07:21:17;;;;;;;5.85;4.18;;;5.30;99.90;;;;;;5045886;28;20278;-72
2022/01/24 07:24:02;;;;;;;8.07;4.10;;;5.20;99.90;;;;;;5049795;28;20676;-73
2022/01/24 07:26:49;;;;;;;5.90;4.40;;;5.20;99.90;;;;;;5061921;28;20211;-73
2022/01/24 07:29:35;;;;;;;6.78;4.20;;;5.20;99.90;;;;;;5052210;28;20208;-72
2022/01/24 07:32:21;;;;;;;6.90;4.80;;;5.20;99.90;;;;;;5073537;22;20282;-71
2022/01/24 07:35:07;;;;;;;7.65;4.65;;;5.10;99.90;;;;;;5068697;28;20200;-71
2022/01/24 07:37:53;;;;;;;6.23;4.53;;;5.10;99.90;;;;;;5068800;28;20278;-71
2022/01/24 07:40:41;;;;;;;7.45;6.05;;;5.10;99.90;;;;;;5065860;28;20472;-73
2022/01/24 07:43:28;;;;;;;5.27;4.70;;;5.20;99.90;;;;;;5066054;28;20756;-72
2022/01/24 07:46:14;;;;;;;4.97;4.43;;;5.20;99.90;;;;;;5069269;28;20446;-72
2022/01/24 07:49:01;;;;;;;5.45;4.78;;;5.30;99.90;;;;;;5066570;28;20883;-71
2022/01/24 07:51:47;;;;;;;5.97;4.18;;;5.30;99.90;;;;;;5068537;28;20204;-71
2022/01/24 07:54:32;;;;;;;7.15;5.03;;;5.30;99.90;;;;;;5069813;28;20680;-71
2022/01/24 07:57:18;;;;;;;5.68;4.28;;;5.40;99.90;;;;;;5067357;28;20266;-71
2022/01/24 08:00:07;;;;;;;5.80;4.90;;;5.30;99.90;;;;;;5065360;28;20191;-71
2022/01/24 08:02:53;;;;;;;6.40;5.22;;;5.30;99.90;;;;;;5069264;28;20266;-72
2022/01/24 08:05:39;;;;;;;5.80;5.00;;;5.30;99.90;;;;;;5069321;28;20204;-71
2022/01/24 08:08:24;;;;;;;5.60;3.90;;;5.40;99.90;;;;;;5064422;28;20446;-70
2022/01/24 08:11:11;;;;;;;6.07;5.00;;;5.50;99.90;;;;;;5068486;28;20270;-70
2022/01/24 08:13:57;;;;;;;6.60;4.97;;;5.50;99.90;;;;;;5068052;28;20977;-71
2022/01/24 08:16:44;;;;;;;6.10;5.00;;;5.50;99.90;;;;;;5065490;28;20207;-70
2022/01/24 08:19:32;;;;;;;6.33;4.87;;;5.50;99.90;;;;;;5064782;28;20434;-72
2022/01/24 08:22:18;;;;;;;7.28;6.15;;;5.50;99.90;;;;;;5064564;28;20486;-72
2022/01/24 08:25:05;;;;;;;8.47;5.03;;;5.50;99.90;;;;;;5067088;28;20772;-71
2022/01/24 08:27:51;;;;;;;7.00;5.90;;;5.40;99.90;;;;;;5068589;28;20470;-71
2022/01/24 08:30:36;;;;;;;6.20;4.63;;;5.40;99.90;;;;;;5068009;28;20204;-71
2022/01/24 08:33:23;;;;;;;5.40;4.80;;;5.50;99.90;;;;;;5061314;28;20286;-71
2022/01/24 08:36:09;;;;;;;5.22;4.72;;;5.50;99.90;;;;;;5069488;28;20451;-70
2022/01/24 08:38:57;;;;;;;4.83;4.33;;;5.60;99.90;;;;;;5067324;28;20208;-70
2022/01/24 08:41:57;;;;;;;7.03;5.30;;;5.70;99.90;;;;;;5068443;28;20618;-71
2022/01/24 08:47:47;;;;;;;8.38;6.28;;;5.60;99.90;;;;;;5060847;28;20203;-71
2022/01/24 08:50:35;;;;;;;5.50;5.00;;;5.50;99.90;;;;;;5065832;28;20223;-71
2022/01/24 08:53:23;;;;;;;8.50;6.47;;;5.40;99.90;;;;;;5063967;28;20470;-71
2022/01/24 08:56:10;;;;;;;7.60;5.95;;;5.50;99.90;;;;;;5067578;28;20446;-71
2022/01/24 08:58:56;;;;;;;7.28;6.00;;;5.50;99.90;;;;;;5063544;28;20685;-71
2022/01/24 09:01:43;;;;;;;8.80;6.03;;;5.50;99.90;;;;;;5068929;28;20270;-71
2022/01/24 09:04:29;;;;;;;10.10;5.70;;;5.50;99.90;;;;;;5069990;28;20207;-71
2022/01/24 09:07:18;;;;;;;6.97;5.22;;;5.60;99.90;;;;;;5074117;28;20323;-71
2022/01/24 09:10:06;;;;;;;7.93;5.90;;;5.60;99.90;;;;;;5054088;28;20339;-70
2022/01/24 09:12:52;;;;;;;12.15;6.13;;;5.50;99.90;;;;;;5071607;28;20219;-71
2022/01/24 09:15:38;;;;;;;7.82;4.88;;;5.60;99.90;;;;;;5068707;28;20573;-71
2022/01/24 09:18:23;;;;;;;6.80;4.65;;;5.60;99.90;;;;;;5070612;28;20307;-70
2022/01/24 09:21:09;;;;;;;9.73;6.65;;;5.50;99.90;;;;;;5072909;28;20203;-71
2022/01/24 09:23:56;;;;;;;9.77;5.55;;;5.50;99.90;;;;;;5073667;28;20240;-71
2022/01/24 09:26:41;;;;;;;7.27;5.53;;;5.50;99.90;;;;;;5074025;28;20281;-71
2022/01/24 09:29:27;;;;;;;7.57;6.28;;;5.50;99.90;;;;;;5070753;28;20512;-71
2022/01/24 09:32:13;;;;;;;13.10;7.28;;;5.50;99.90;;;;;;5072494;28;20339;-71
2022/01/24 09:34:59;;;;;;;11.77;5.07;;;5.50;99.90;;;;;;5072202;28;20211;-72
2022/01/24 09:37:47;;;;;;;5.32;4.60;;;5.60;99.90;;;;;;5068090;28;20842;-72
2022/01/24 09:40:35;;;;;;;7.00;5.50;;;5.60;99.90;;;;;;5073285;28;20207;-72
2022/01/24 09:43:20;;;;;;;7.03;5.00;;;5.50;99.90;;;;;;5070035;28;20224;-71
2022/01/24 09:46:08;;;;;;;7.03;5.43;;;5.50;99.90;;;;;;5073193;28;20450;-71
2022/01/24 09:48:56;;;;;;;11.10;7.05;;;5.50;99.90;;;;;;5070877;28;20446;-71
2022/01/24 09:51:44;;;;;;;12.52;6.07;;;5.50;99.90;;;;;;5071096;28;20200;-71
2022/01/24 09:54:30;;;;;;;9.75;5.82;;;5.50;99.90;;;;;;5069248;28;20207;-72
2022/01/24 09:57:17;;;;;;;7.85;5.35;;;5.40;99.90;;;;;;5070315;28;20696;-71
2022/01/24 10:00:06;;;;;;;8.75;5.32;;;5.50;99.90;;;;;;5071167;28;20580;-72
2022/01/24 10:02:52;;;;;;;6.82;5.10;;;5.50;99.90;;;;;;5071357;28;20262;-71
2022/01/24 10:05:39;;;;;;;8.30;5.47;;;5.60;99.90;;;;;;5067972;28;20196;-70
2022/01/24 10:08:26;;;;;;;8.13;5.60;;;5.60;99.90;;;;;;5065162;28;20287;-71
2022/01/24 10:11:17;;;;;;;8.65;4.75;;;5.60;99.90;;;;;;5073251;28;20235;-71
2022/01/24 10:17:14;;;;;;;5.05;4.55;;;5.60;99.90;;;;;;5059647;28;20560;-70
2022/01/24 10:20:21;;;;;;;17.90;6.03;;;5.60;99.90;;;;;;5077593;28;20253;-72
2022/01/24 10:23:13;;;;;;;7.15;4.38;;;5.70;99.90;;;;;;5068091;28;20636;-72
2022/01/24 10:26:03;;;;;;;8.93;5.13;;;5.70;99.90;;;;;;5072912;28;20211;-72
2022/01/24 10:28:49;;;;;;;12.93;5.27;;;5.80;99.90;;;;;;5070932;28;20577;-72
2022/01/24 10:31:46;;;;;;;6.53;4.13;;;5.80;99.90;;;;;;5072654;28;20411;-72
2022/01/24 10:34:36;;;;;;;6.35;4.30;;;5.80;99.90;;;;;;5063674;28;20474;-72
2022/01/24 10:37:23;;;;;;;7.15;4.88;;;5.90;99.90;;;;;;5058102;28;20196;-71
2022/01/24 10:40:19;;;;;;;7.27;4.43;;;5.90;99.90;;;;;;5069768;28;20238;-72
2022/01/24 10:43:20;;;;;;;6.38;3.92;;;6.00;99.90;;;;;;5052619;28;20490;-72
2022/01/24 10:46:07;;;;;;;8.25;5.50;;;6.00;99.90;;;;;;5064746;28;20214;-71
2022/01/24 10:49:06;;;;;;;6.65;4.47;;;6.00;99.90;;;;;;5053339;28;20212;-72
2022/01/24 10:51:53;;;;;;;9.07;4.57;;;6.00;99.90;;;;;;5052752;28;20178;-72
2022/01/24 10:54:39;;;;;;;8.55;4.18;;;6.00;99.90;;;;;;5062830;28;20203;-72
2022/01/24 10:57:26;;;;;;;10.85;4.90;;;6.10;99.90;;;;;;5063081;28;20200;-71
2022/01/24 11:00:16;;;;;;;7.87;4.40;;;6.10;99.90;;;;;;5052471;28;20279;-72
2022/01/24 11:03:03;;;;;;;7.70;4.23;;;6.30;99.90;;;;;;5055017;28;20459;-71
2022/01/24 11:05:50;;;;;;;9.20;4.33;;;6.30;99.90;;;;;;5072088;28;20394;-72
2022/01/24 11:08:35;;;;;;;5.35;4.05;;;6.20;99.90;;;;;;5059566;28;20520;-73
2022/01/24 11:11:21;;;;;;;6.07;5.07;;;6.20;99.90;;;;;;5072219;28;20557;-72
2022/01/24 11:14:09;;;;;;;8.83;5.10;;;6.30;99.90;;;;;;5070294;28;20217;-72
2022/01/24 11:16:58;;;;;;;9.30;4.33;;;6.30;99.90;;;;;;5069745;28;20451;-73
2022/01/24 11:19:49;;;;;;;8.68;4.38;;;6.40;99.90;;;;;;5071390;28;20451;-72
2022/01/24 11:22:42;;;;;;;5.68;4.13;;;6.40;99.90;;;;;;5062770;28;20605;-73
2022/01/24 11:25:29;;;;;;;7.28;4.47;;;6.40;99.90;;;;;;5070991;28;20592;-73
2022/01/24 11:28:15;;;;;;;11.70;3.95;;;6.50;99.90;;;;;;5068488;28;20358;-72
2022/01/24 11:31:08;;;;;;;5.47;3.60;;;6.50;99.90;;;;;;5070605;28;20195;-72
2022/01/24 11:34:00;;;;;;;6.87;3.50;;;6.50;99.90;;;;;;5065858;28;20220;-72
2022/01/24 11:36:46;;;;;;;6.00;3.33;;;6.50;99.90;;;;;;5062574;28;20469;-70
2022/01/24 11:39:35;;;;;;;5.67;3.87;;;6.60;99.90;;;;;;5070382;28;20438;-71
2022/01/24 11:42:29;;;;;;;4.43;3.40;;;6.50;99.90;;;;;;5062839;28;20466;-70
2022/01/24 11:45:18;;;;;;;4.75;3.15;;;6.50;99.90;;;;;;5070149;28;20203;-71
2022/01/24 11:48:15;;;;;;;8.40;3.47;;;6.60;99.90;;;;;;5067287;28;20227;-72
2022/01/24 11:51:05;;;;;;;5.63;3.50;;;6.70;99.90;;;;;;5071182;28;20451;-71
2022/01/24 11:53:50;;;;;;;8.70;3.17;;;6.70;99.90;;;;;;5070844;28;20220;-71
2022/01/24 11:56:37;;;;;;;4.18;3.20;;;6.80;99.90;;;;;;5066879;28;20466;-71
2022/01/24 11:59:25;;;;;;;4.85;3.40;;;6.90;99.90;;;;;;5070531;28;20199;-71
2022/01/24 12:02:12;;;;;;;8.73;3.17;;;7.00;99.90;;;;;;5069309;28;20203;-72
2022/01/24 12:05:00;;;;;;;4.95;2.63;;;7.10;99.90;;;;;;5069496;28;20433;-69
2022/01/24 12:07:47;;;;;;;5.33;3.10;;;7.20;99.90;;;;;;5066554;28;20242;-72
2022/01/24 12:10:43;;;;;;;7.28;3.08;;;7.30;99.90;;;;;;5070095;28;20441;-71
2022/01/24 12:13:41;;;;;;;9.27;3.42;;;7.50;99.90;;;;;;5070734;28;20231;-71
2022/01/24 12:16:35;;;;;;;3.93;2.50;;;7.50;99.90;;;;;;5069412;28;20219;-71
2022/01/24 12:19:31;;;;;;;5.30;3.37;;;7.60;99.90;;;;;;5065887;28;21005;-71
2022/01/24 12:22:37;;;;;;;6.00;2.73;;;7.70;99.90;;;;;;5070479;28;20478;-72
2022/01/24 12:25:48;;;;;;;5.47;3.00;;;7.80;99.90;;;;;;5068148;28;20957;-71
2022/01/24 12:28:47;;;;;;;7.18;3.05;;;8.00;99.90;;;;;;5069129;28;20951;-71
2022/01/24 12:31:44;;;;;;;4.40;2.97;;;8.20;99.90;;;;;;5062297;28;20195;-72
2022/01/24 12:34:32;;;;;;;3.87;2.73;;;8.50;99.90;;;;;;5070229;28;20552;-72
2022/01/24 12:37:24;;;;;;;8.13;3.03;;;8.80;99.90;;;;;;5064332;28;20466;-72
2022/01/24 12:40:12;;;;;;;9.17;4.70;;;9.00;99.90;;;;;;5073631;28;20443;-72
2022/01/24 12:43:04;;;;;;;6.53;2.60;;;9.30;99.90;;;;;;5072074;28;20461;-72
2022/01/24 12:48:56;;;;;;;5.30;2.83;;;9.90;99.90;;;;;;5071083;28;20402;-71
2022/01/24 12:51:41;;;;;;;7.67;2.80;;;10.00;98.60;;;;;;5073166;28;20461;-71
2022/01/24 12:54:30;;;;;;;3.57;2.60;;;10.20;98.00;;;;;;5064963;28;20536;-72
2022/01/24 12:57:18;;;;;;;3.03;2.10;;;10.40;97.50;;;;;;5068681;28;20441;-70
2022/01/24 13:00:08;;;;;;;4.90;2.30;;;10.40;96.90;;;;;;5072630;28;20447;-70
2022/01/24 13:02:55;;;;;;;5.23;2.40;;;10.70;93.80;;;;;;5070807;28;20833;-70
2022/01/24 13:05:41;;;;;;;4.90;2.43;;;10.80;91.50;;;;;;5068623;28;20570;-70
2022/01/24 13:08:27;;;;;;;5.47;2.97;;;10.80;91.80;;;;;;5073245;28;20450;-70
2022/01/24 13:11:12;;;;;;;4.70;2.60;;;11.10;90.80;;;;;;5072679;28;20469;-70
2022/01/24 13:14:06;;;;;;;5.63;2.73;;;11.30;84.20;;;;;;5072352;28;20929;-70
2022/01/24 13:23:06;;;;;;;4.27;2.80;;;11.70;74.90;;;;;;5071557;28;20474;-70
2022/01/24 13:25:52;;;;;;;7.63;2.47;;;12.00;73.90;;;;;;5069099;28;20442;-69
2022/01/24 13:28:38;;;;;;;5.47;2.43;;;12.00;71.50;;;;;;5070838;28;20763;-69
2022/01/24 13:31:23;;;;;;;8.40;2.70;;;12.10;71.30;;;;;;5064944;28;20471;-70
2022/01/24 13:34:11;;;;;;;4.03;2.43;;;12.10;70.10;;;;;;5080656;22;20564;-85
2022/01/24 13:37:08;;;;;;;6.50;2.90;;;12.00;69.50;;;;;;5069991;28;20501;-85
2022/01/24 13:39:54;;;;;;;5.70;2.40;;;12.20;68.90;;;;;;5083308;22;20580;-70
2022/01/24 13:42:40;;;;;;;8.03;2.47;;;12.40;67.60;;;;;;5072318;28;20454;-69
2022/01/24 13:45:25;;;;;;;3.70;3.00;;;12.50;66.80;;;;;;5060873;28;20488;-69
2022/01/24 13:48:19;;;;;;;4.20;2.30;;;12.70;63.20;;;;;;5053278;28;20905;-71
2022/01/24 13:51:06;;;;;;;4.00;2.37;;;13.20;60.80;;;;;;5053996;28;20371;-71
2022/01/24 13:53:56;;;;;;;5.40;2.20;;;13.90;53.50;;;;;;5061370;28;20453;-71
2022/01/24 13:56:44;;;;;;;3.73;2.23;;;14.00;50.10;;;;;;5059525;28;20473;-71
2022/01/24 13:59:30;;;;;;;6.40;2.30;;;13.00;52.50;;;;;;5071794;28;20429;-70
2022/01/24 14:02:19;;;;;;;4.67;2.70;;;11.90;58.40;;;;;;5073617;28;20554;-71
2022/01/24 14:05:06;;;;;;;3.40;2.30;;;11.00;64.30;;;;;;5063003;28;20470;-70
2022/01/24 14:07:51;;;;;;;7.80;2.70;;;10.30;72.80;;;;;;5071645;28;20454;-70
2022/01/24 14:10:38;;;;;;;5.47;3.03;;;9.80;78.40;;;;;;5071541;28;20446;-71
2022/01/24 14:13:24;;;;;;;3.83;2.70;;;9.30;87.00;;;;;;5072986;28;20501;-70
2022/01/24 14:16:22;;;;;;;8.87;2.80;;;8.90;92.30;;;;;;5053099;28;20414;-71
2022/01/24 14:19:08;;;;;;;5.00;3.20;;;8.60;97.00;;;;;;5058768;28;20448;-72
2022/01/24 14:22:06;;;;;;;6.87;3.90;;;8.40;98.30;;;;;;5065364;28;20920;-70
2022/01/24 14:24:58;;;;;;;6.93;3.70;;;8.30;99.90;;;;;;5058268;28;20490;-71
2022/01/24 14:27:47;;;;;;;7.50;3.60;;;8.20;99.90;;;;;;5064434;28;20475;-71
2022/01/24 14:30:37;;;;;;;8.77;3.67;;;8.20;99.90;;;;;;5063689;28;20454;-70
2022/01/24 14:33:30;;;;;;;7.47;3.80;;;8.10;99.90;;;;;;5067110;28;20442;-70
2022/01/24 14:36:18;;;;;;;5.03;3.10;;;8.00;99.90;;;;;;5067179;28;20438;-69
2022/01/24 14:39:06;;;;;;;6.60;3.80;;;7.90;99.90;;;;;;5071249;28;20474;-69
2022/01/24 14:41:52;;;;;;;11.17;4.00;;;7.80;99.90;;;;;;5071595;28;20443;-69
2022/01/24 14:44:53;;;;;;;5.90;3.63;;;7.70;99.90;;;;;;5063948;28;20884;-69
2022/01/24 14:47:39;;;;;;;9.20;4.60;;;7.70;99.90;;;;;;5065923;28;20483;-71
2022/01/24 14:50:25;;;;;;;11.10;5.40;;;7.60;99.90;;;;;;5070368;28;20549;-70
2022/01/24 14:53:12;;;;;;;6.00;4.40;;;7.40;99.90;;;;;;5070888;28;20496;-70
2022/01/24 14:55:58;;;;;;;11.33;5.60;;;7.50;99.90;;;;;;5067992;28;20409;-70
2022/01/24 14:58:43;;;;;;;6.03;3.97;;;7.40;99.90;;;;;;5074442;28;20907;-70
2022/01/24 15:01:31;;;;;;;9.90;4.90;;;7.20;99.90;;;;;;5077391;28;20774;-71
2022/01/24 15:04:17;;;;;;;8.17;4.60;;;7.20;99.90;;;;;;5060443;28;20440;-71
2022/01/24 15:07:03;;;;;;;16.73;5.70;;;7.20;99.90;;;;;;5069981;28;20411;-69
2022/01/24 15:09:48;;;;;;;8.03;3.47;;;7.20;99.90;;;;;;5066300;28;20445;-69
2022/01/24 15:12:37;;;;;;;6.17;4.30;;;7.20;99.90;;;;;;5072053;28;20401;-68
2022/01/24 15:15:24;;;;;;;9.63;5.57;;;7.20;99.90;;;;;;5068357;28;20457;-69
2022/01/24 15:24:32;;;;;;;7.00;4.80;;;7.00;99.90;;;;;;5063046;28;20939;-69
2022/01/24 15:27:18;;;;;;;7.97;3.77;;;7.00;99.90;;;;;;5071063;28;20793;-70
2022/01/24 15:30:05;;;;;;;6.60;4.53;;;6.90;99.90;;;;;;5071689;28;20814;-71
2022/01/24 15:32:51;;;;;;;7.97;5.03;;;6.90;99.90;;;;;;5053606;28;20860;-71
2022/01/24 15:35:38;;;;;;;7.13;4.13;;;6.80;99.90;;;;;;5063843;28;20516;-71
2022/01/24 15:38:24;;;;;;;5.35;3.78;;;6.70;99.90;;;;;;5071133;28;20937;-71
2022/01/24 15:41:09;;;;;;;8.00;4.10;;;6.60;99.90;;;;;;5072042;28;20215;-71
2022/01/24 15:44:02;;;;;;;8.50;4.33;;;6.40;99.90;;;;;;5068687;28;20481;-71
2022/01/24 15:46:55;;;;;;;6.20;4.10;;;6.30;99.90;;;;;;5070689;28;20434;-71
2022/01/24 15:49:42;;;;;;;9.03;4.70;;;6.20;99.90;;;;;;5055851;28;20439;-71
2022/01/24 15:52:29;;;;;;;19.70;10.55;;;6.10;99.90;;;;;;5069516;28;21271;-71
2022/01/24 15:55:17;;;;;;;39.23;15.53;;;6.10;99.90;;;;;;5069566;28;20224;-70
2022/01/24 15:58:04;;;;;;;12.35;5.80;;;6.10;99.90;;;;;;5068564;28;20536;-71